Time;durP1;ratioP1;P1;durP2;ratioP2;P2;SDS_P1;SDS_P2;PMS_P1;PMS_P2;Temp;Humidity;BMP_temperature;BMP_pressure;BME280_temperature;BME280_humidity;BME280_pressure;Samples;Min_cycle;Max_cycle;Signal;HPM_P1;HPM_P2
2022/05/27 00:00:00;;;;;;;2.63;1.60;;;;;;;14.90;100.00;96933.53;5022664;28;21676;-83
2022/05/27 00:02:30;;;;;;;3.43;2.13;;;;;;;14.89;100.00;96929.16;5024388;28;20187;-84
2022/05/27 00:04:57;;;;;;;3.00;1.83;;;;;;;14.94;100.00;96926.56;5018460;28;20218;-84
2022/05/27 00:07:24;;;;;;;1.87;1.63;;;;;;;14.97;100.00;96926.88;5024071;28;20210;-84
2022/05/27 00:09:51;;;;;;;3.60;1.53;;;;;;;15.05;100.00;96933.84;5039534;28;20234;-84
2022/05/27 00:12:18;;;;;;;2.33;1.60;;;;;;;15.02;100.00;96932.44;5022415;28;20195;-84
2022/05/27 00:14:45;;;;;;;5.93;2.10;;;;;;;15.02;100.00;96929.72;5022566;28;20273;-85
2022/05/27 00:17:14;;;;;;;4.00;1.70;;;;;;;15.03;100.00;96931.38;5024547;28;20221;-84
2022/05/27 00:19:42;;;;;;;5.00;1.80;;;;;;;15.03;100.00;96942.25;5020468;28;20241;-83
2022/05/27 00:22:09;;;;;;;2.43;1.70;;;;;;;14.97;100.00;96928.81;5021667;28;20289;-84
2022/05/27 00:24:37;;;;;;;2.33;1.87;;;;;;;14.89;100.00;96927.28;5034621;28;20234;-84
2022/05/27 00:27:05;;;;;;;4.30;1.87;;;;;;;14.93;100.00;96923.03;5024226;28;20209;-83
2022/05/27 00:29:32;;;;;;;3.33;1.80;;;;;;;14.94;100.00;96929.28;5021759;28;20215;-84
2022/05/27 00:31:59;;;;;;;3.73;1.97;;;;;;;14.91;100.00;96921.59;5024170;28;20211;-83
2022/05/27 00:34:28;;;;;;;2.43;2.17;;;;;;;14.88;100.00;96927.56;5019813;28;20285;-84
2022/05/27 00:36:55;;;;;;;2.53;2.10;;;;;;;14.82;100.00;96923.88;5031489;28;20274;-84
2022/05/27 00:39:22;;;;;;;2.43;1.80;;;;;;;14.85;100.00;96922.59;5027879;28;20215;-83
2022/05/27 00:41:49;;;;;;;1.97;1.60;;;;;;;14.86;100.00;96911.47;5024980;28;20215;-83
2022/05/27 00:44:16;;;;;;;4.37;1.80;;;;;;;14.85;100.00;96915.25;5042024;28;20235;-84
2022/05/27 00:46:45;;;;;;;2.60;1.77;;;;;;;14.75;100.00;96912.34;5026535;28;20294;-84
2022/05/27 00:49:15;;;;;;;2.60;1.77;;;;;;;14.69;100.00;96908.72;5023042;28;20200;-85
2022/05/27 00:51:49;;;;;;;2.03;1.83;;;;;;;14.74;100.00;96910.69;5018257;28;20218;-83
2022/05/27 00:54:21;;;;;;;3.80;1.80;;;;;;;14.79;100.00;96902.66;5024217;28;20206;-84
2022/05/27 00:56:54;;;;;;;1.63;1.53;;;;;;;14.81;100.00;96900.47;5025909;28;20202;-83
2022/05/27 00:59:26;;;;;;;1.73;1.60;;;;;;;14.92;100.00;96905.06;5020534;28;20310;-85
2022/05/27 01:01:54;;;;;;;3.20;1.63;;;;;;;14.99;100.00;96908.44;5025992;28;20211;-84
2022/05/27 01:04:23;;;;;;;2.87;1.80;;;;;;;14.94;100.00;96900.19;5027167;28;20209;-83
2022/05/27 01:06:51;;;;;;;2.43;1.60;;;;;;;14.80;100.00;96898.84;5023810;28;20231;-84
2022/05/27 01:09:18;;;;;;;1.80;1.60;;;;;;;14.72;100.00;96901.94;5023435;28;20208;-84
2022/05/27 01:12:15;;;;;;;2.27;2.03;;;;;;;14.63;100.00;96896.06;5043995;28;20226;-86
2022/05/27 01:14:58;;;;;;;1.83;1.70;;;;;;;14.66;100.00;96902.91;5017429;28;20210;-84
2022/05/27 01:17:36;;;;;;;3.37;1.90;;;;;;;14.64;100.00;96900.44;5021153;28;20285;-84
2022/05/27 01:20:21;;;;;;;1.80;1.70;;;;;;;14.69;100.00;96902.44;5033242;28;20288;-83
2022/05/27 01:23:14;;;;;;;2.10;1.90;;;;;;;14.71;100.00;96906.59;5041019;28;20226;-84
2022/05/27 01:26:26;;;;;;;3.77;2.10;;;;;;;14.77;100.00;96900.16;5020905;28;20207;-84
2022/05/27 01:28:59;;;;;;;2.37;1.70;;;;;;;14.76;100.00;96898.50;4982333;28;20221;-84
2022/05/27 01:31:38;;;;;;;2.20;1.80;;;;;;;14.72;100.00;96889.19;5042470;28;20308;-83
2022/05/27 01:34:13;;;;;;;2.03;1.70;;;;;;;14.76;100.00;96892.25;5033038;28;20222;-83
2022/05/27 01:36:47;;;;;;;2.17;1.77;;;;;;;14.84;100.00;96899.19;5025575;28;20329;-83
2022/05/27 01:39:24;;;;;;;3.87;1.93;;;;;;;14.82;100.00;96902.13;5017895;28;20342;-84
2022/05/27 01:42:01;;;;;;;2.70;1.90;;;;;;;14.83;100.00;96897.53;5017828;28;20263;-85
2022/05/27 01:44:35;;;;;;;3.13;1.77;;;;;;;14.88;100.00;96909.34;5015489;28;20266;-83
2022/05/27 01:47:08;;;;;;;3.17;2.10;;;;;;;14.92;100.00;96910.50;5020697;28;20234;-84
2022/05/27 01:49:39;;;;;;;2.13;1.93;;;;;;;14.89;100.00;96913.69;5017511;28;20274;-84
2022/05/27 01:52:14;;;;;;;2.80;1.80;;;;;;;14.90;100.00;96917.22;5017887;28;20221;-83
2022/05/27 01:54:50;;;;;;;4.43;1.80;;;;;;;14.97;100.00;96921.44;5024707;28;20292;-84
2022/05/27 01:57:24;;;;;;;2.87;1.70;;;;;;;15.03;100.00;96917.78;5025287;28;20270;-84
2022/05/27 02:00:02;;;;;;;2.20;2.00;;;;;;;14.95;100.00;96928.22;5016960;28;20226;-85
2022/05/27 02:02:38;;;;;;;3.30;1.90;;;;;;;14.91;100.00;96927.88;5019505;28;20228;-84
2022/05/27 02:05:10;;;;;;;2.07;1.80;;;;;;;14.98;100.00;96925.81;5042156;28;20219;-84
2022/05/27 02:07:41;;;;;;;3.40;1.90;;;;;;;15.06;100.00;96928.16;5040714;28;20257;-84
2022/05/27 02:10:14;;;;;;;3.40;1.97;;;;;;;15.03;100.00;96925.94;5019407;28;20242;-83
2022/05/27 02:12:45;;;;;;;3.20;2.20;;;;;;;14.93;100.00;96920.31;5019055;28;20210;-83
2022/05/27 02:15:17;;;;;;;3.10;2.10;;;;;;;14.81;100.00;96922.22;5037183;28;20231;-84
2022/05/27 02:17:50;;;;;;;2.30;1.70;;;;;;;14.73;100.00;96914.47;5021922;28;20203;-83
2022/05/27 02:20:22;;;;;;;2.00;1.73;;;;;;;14.72;100.00;96915.53;5022758;28;20327;-84
2022/05/27 02:22:53;;;;;;;2.00;1.80;;;;;;;14.80;100.00;96919.78;5023553;28;20207;-85
2022/05/27 02:25:24;;;;;;;2.57;1.70;;;;;;;14.76;100.00;96914.00;5038449;28;20222;-84
2022/05/27 02:27:56;;;;;;;4.43;2.00;;;;;;;14.63;100.00;96898.00;5025402;28;20301;-84
2022/05/27 02:30:30;;;;;;;3.93;1.80;;;;;;;14.56;100.00;96897.28;5019065;28;20266;-84
2022/05/27 02:35:49;;;;;;;5.00;1.93;;;;;;;14.63;100.00;96903.44;5018523;28;20264;-84
2022/05/27 02:38:18;;;;;;;2.33;1.90;;;;;;;14.53;100.00;96895.91;5024516;28;20232;-83
2022/05/27 02:40:53;;;;;;;2.17;1.73;;;;;;;14.50;100.00;96904.53;5024759;28;20293;-84
2022/05/27 02:43:28;;;;;;;2.43;1.93;;;;;;;14.53;100.00;96900.50;5024237;28;20246;-84
2022/05/27 02:46:05;;;;;;;2.37;2.00;;;;;;;14.57;100.00;96916.06;5029230;28;20214;-84
2022/05/27 02:48:40;;;;;;;2.53;1.93;;;;;;;14.63;100.00;96909.66;5029291;28;20207;-85
2022/05/27 02:51:20;;;;;;;3.97;2.87;;;;;;;14.59;100.00;96888.66;5023169;28;20211;-83
2022/05/27 02:53:55;;;;;;;3.27;1.67;;;;;;;14.56;100.00;96892.69;5014126;28;20229;-84
2022/05/27 02:56:26;;;;;;;1.90;1.70;;;;;;;14.54;100.00;96902.16;5025206;28;20215;-86
2022/05/27 02:58:54;;;;;;;2.53;1.80;;;;;;;14.50;100.00;96888.22;5034543;28;20233;-84
2022/05/27 03:01:22;;;;;;;3.63;1.90;;;;;;;14.58;100.00;96889.72;5023751;28;20211;-84
2022/05/27 03:03:50;;;;;;;3.27;1.97;;;;;;;14.58;100.00;96890.53;5022960;28;20211;-84
2022/05/27 03:06:32;;;;;;;3.77;1.70;;;;;;;14.59;100.00;96891.38;5042666;28;20233;-84
2022/05/27 03:09:06;;;;;;;3.03;2.00;;;;;;;14.58;100.00;96895.97;5039468;28;20268;-84
2022/05/27 03:11:47;;;;;;;2.77;2.07;;;;;;;14.58;100.00;96900.59;5024368;28;20213;-84
2022/05/27 03:14:36;;;;;;;2.00;1.87;;;;;;;14.60;100.00;96903.91;5038695;28;20301;-84
2022/05/27 03:17:16;;;;;;;3.43;2.00;;;;;;;14.67;100.00;96899.97;5016484;28;20270;-83
2022/05/27 03:20:01;;;;;;;3.93;2.10;;;;;;;14.70;100.00;96904.94;5021250;28;20284;-83
2022/05/27 03:22:43;;;;;;;2.83;1.80;;;;;;;14.78;100.00;96906.44;5019286;28;20208;-84
2022/05/27 03:25:20;;;;;;;2.00;1.80;;;;;;;14.80;100.00;96898.84;5018547;28;20211;-86
2022/05/27 03:27:58;;;;;;;3.23;2.20;;;;;;;14.83;100.00;96916.56;5035443;28;20213;-84
2022/05/27 03:30:32;;;;;;;5.57;2.53;;;;;;;14.82;100.00;96917.63;5016919;28;20199;-84
2022/05/27 03:33:05;;;;;;;3.30;2.20;;;;;;;14.76;100.00;96908.56;5019123;28;20294;-84
2022/05/27 03:35:37;;;;;;;3.13;1.87;;;;;;;14.71;100.00;96895.72;5021508;28;20203;-84
2022/05/27 03:38:10;;;;;;;2.47;1.90;;;;;;;14.77;100.00;96893.91;5039357;28;20211;-83
2022/05/27 03:40:43;;;;;;;4.70;1.90;;;;;;;14.75;100.00;96901.47;5040440;28;20322;-85
2022/05/27 03:43:12;;;;;;;6.03;2.10;;;;;;;14.64;100.00;96892.28;5020107;28;20234;-84
2022/05/27 03:45:59;;;;;;;3.07;2.40;;;;;;;14.65;100.00;96895.84;5023455;28;20206;-84
2022/05/27 03:48:29;;;;;;;2.37;1.80;;;;;;;14.63;100.00;96906.94;5020281;28;20279;-83
2022/05/27 03:51:01;;;;;;;4.80;2.30;;;;;;;14.61;100.00;96925.41;5023717;28;20217;-84
2022/05/27 03:56:09;;;;;;;2.27;1.80;;;;;;;14.56;100.00;96929.91;5018245;28;20210;-83
2022/05/27 03:58:36;;;;;;;2.87;1.97;;;;;;;14.52;100.00;96924.13;5033449;28;20209;-84
2022/05/27 04:01:03;;;;;;;3.97;1.93;;;;;;;14.52;100.00;96932.28;5036589;28;21694;-84
2022/05/27 04:03:30;;;;;;;4.80;2.20;;;;;;;14.47;100.00;96925.91;5019787;28;20295;-84
2022/05/27 04:05:59;;;;;;;2.20;2.00;;;;;;;14.44;100.00;96926.41;5024033;28;20210;-84
2022/05/27 04:08:26;;;;;;;2.17;1.80;;;;;;;14.30;100.00;96920.34;5025295;28;20302;-84
2022/05/27 04:10:53;;;;;;;4.40;2.00;;;;;;;14.24;100.00;96911.28;5026504;28;20199;-84
2022/05/27 04:13:20;;;;;;;2.90;2.00;;;;;;;14.23;100.00;96927.81;5020508;28;20209;-84
2022/05/27 04:15:47;;;;;;;4.17;2.10;;;;;;;14.33;100.00;96923.44;5040326;28;20235;-84
2022/05/27 04:18:14;;;;;;;5.80;2.10;;;;;;;14.30;100.00;96932.06;5026266;28;20210;-84
2022/05/27 04:20:41;;;;;;;2.77;1.80;;;;;;;14.21;100.00;96925.34;5024888;28;20249;-84
2022/05/27 04:23:11;;;;;;;2.20;2.00;;;;;;;14.20;100.00;96931.88;5023357;28;20321;-83
2022/05/27 04:25:39;;;;;;;2.67;2.10;;;;;;;14.25;100.00;96934.69;5026990;28;20207;-85
2022/05/27 04:28:06;;;;;;;3.43;2.20;;;;;;;14.21;100.00;96933.50;5024288;28;20206;-84
2022/05/27 04:30:33;;;;;;;4.10;2.40;;;;;;;14.16;100.00;96938.81;5028710;28;20226;-83
2022/05/27 04:33:00;;;;;;;3.67;2.30;;;;;;;14.19;100.00;96934.81;5025306;28;20390;-85
2022/05/27 04:35:28;;;;;;;3.40;2.20;;;;;;;14.16;100.00;96927.97;5029077;28;20214;-84
2022/05/27 04:37:55;;;;;;;3.00;2.13;;;;;;;14.16;100.00;96932.56;5024528;28;20240;-83
2022/05/27 04:40:23;;;;;;;2.47;2.20;;;;;;;14.17;100.00;96935.03;5025129;28;20233;-84
2022/05/27 04:42:50;;;;;;;3.17;2.20;;;;;;;14.16;100.00;96927.97;5042177;28;20227;-84
2022/05/27 04:45:19;;;;;;;2.13;1.93;;;;;;;14.28;100.00;96936.09;5043194;28;20325;-83
2022/05/27 04:47:47;;;;;;;5.03;2.30;;;;;;;14.30;100.00;96928.50;5025027;28;20297;-83
2022/05/27 04:50:14;;;;;;;2.43;2.00;;;;;;;14.35;100.00;96929.47;5015639;28;20246;-84
2022/05/27 04:52:42;;;;;;;4.03;2.10;;;;;;;14.30;100.00;96929.34;5041918;28;20211;-84
2022/05/27 04:55:13;;;;;;;5.73;2.60;;;;;;;14.23;100.00;96915.06;5026927;28;20325;-85
2022/05/27 04:57:44;;;;;;;4.70;2.97;;;;;;;14.28;100.00;96923.34;5043973;28;20288;-84
2022/05/27 05:00:14;;;;;;;3.47;2.47;;;;;;;14.29;100.00;96930.41;5025383;28;20250;-84
2022/05/27 05:02:42;;;;;;;2.00;1.80;;;;;;;14.31;100.00;96932.88;5025097;28;20368;-84
2022/05/27 05:05:10;;;;;;;3.10;1.97;;;;;;;14.26;100.00;96927.34;5024982;28;20213;-84
2022/05/27 05:07:40;;;;;;;3.90;1.90;;;;;;;14.26;100.00;96930.91;5018244;28;20208;-83
2022/05/27 05:10:08;;;;;;;2.67;2.27;;;;;;;14.28;100.00;96923.34;5023546;28;20249;-83
2022/05/27 05:12:36;;;;;;;2.63;2.40;;;;;;;14.37;100.00;96930.03;5023836;28;20203;-84
2022/05/27 05:15:05;;;;;;;3.90;1.83;;;;;;;14.39;100.00;96918.97;5025462;28;20215;-84
2022/05/27 05:17:32;;;;;;;4.23;2.30;;;;;;;14.35;100.00;96923.19;5019259;28;20205;-84
2022/05/27 05:19:59;;;;;;;3.87;1.83;;;;;;;14.37;100.00;96927.31;5040749;28;20273;-83
2022/05/27 05:22:26;;;;;;;5.03;2.13;;;;;;;14.43;100.00;96935.63;5022524;28;20218;-84
2022/05/27 05:24:54;;;;;;;2.83;2.30;;;;;;;14.42;100.00;96934.78;5040089;28;20223;-83
2022/05/27 05:27:21;;;;;;;3.00;2.20;;;;;;;14.35;100.00;96928.63;5023704;28;20207;-84
2022/05/27 05:29:49;;;;;;;2.93;2.17;;;;;;;14.48;100.00;96938.44;5023484;28;20207;-84
2022/05/27 05:32:17;;;;;;;4.23;2.27;;;;;;;14.52;100.00;96929.56;5022001;28;20238;-84
2022/05/27 05:34:44;;;;;;;2.97;2.17;;;;;;;14.54;100.00;96937.47;5025550;28;20213;-84
2022/05/27 05:37:11;;;;;;;6.00;1.90;;;;;;;14.57;100.00;96932.38;5024805;28;20206;-84
2022/05/27 05:39:38;;;;;;;3.73;2.10;;;;;;;14.55;100.00;96929.06;5023069;28;20223;-83
2022/05/27 05:42:08;;;;;;;2.97;2.20;;;;;;;14.59;100.00;96945.72;5017874;28;20206;-84
2022/05/27 05:44:35;;;;;;;2.63;2.30;;;;;;;14.61;100.00;96940.88;5020942;28;20242;-85
2022/05/27 05:47:03;;;;;;;2.37;2.10;;;;;;;14.56;100.00;96930.72;5039577;28;20210;-84
2022/05/27 05:49:32;;;;;;;2.07;1.87;;;;;;;14.60;100.00;96944.66;5027732;28;20203;-84
2022/05/27 05:52:00;;;;;;;4.43;2.70;;;;;;;14.51;100.00;96938.78;5038447;28;20294;-84
2022/05/27 05:54:29;;;;;;;3.03;2.40;;;;;;;14.44;100.00;96934.56;5021633;28;20261;-84
2022/05/27 05:57:00;;;;;;;3.30;2.30;;;;;;;14.37;100.00;96921.09;5024335;28;20203;-83
2022/05/27 05:59:30;;;;;;;6.60;2.50;;;;;;;14.44;100.00;96934.56;5026868;28;20207;-84
2022/05/27 06:01:57;;;;;;;3.63;2.10;;;;;;;14.45;100.00;96919.91;5024256;28;20211;-84
2022/05/27 06:04:24;;;;;;;2.80;2.17;;;;;;;14.46;100.00;96922.34;5023764;28;20260;-84
2022/05/27 06:06:53;;;;;;;3.00;2.00;;;;;;;14.43;100.00;96920.13;5025532;28;20202;-84
2022/05/27 06:09:25;;;;;;;3.70;2.13;;;;;;;14.39;100.00;96914.34;5028199;28;20206;-83
2022/05/27 06:11:53;;;;;;;5.60;2.30;;;;;;;14.30;100.00;96915.75;5038059;28;20258;-84
2022/05/27 06:14:20;;;;;;;4.23;2.30;;;;;;;14.29;100.00;96914.09;5016430;28;20199;-84
2022/05/27 06:16:47;;;;;;;4.27;2.00;;;;;;;14.24;100.00;96905.84;5024313;28;20258;-84
2022/05/27 06:19:14;;;;;;;5.23;2.50;;;;;;;14.29;100.00;96894.28;5024332;28;20214;-83
2022/05/27 06:21:42;;;;;;;3.00;2.37;;;;;;;14.40;100.00;96901.59;5021438;28;20298;-84
2022/05/27 06:24:11;;;;;;;6.50;2.43;;;;;;;14.43;100.00;96900.28;5035123;28;20253;-84
2022/05/27 06:26:39;;;;;;;2.57;2.37;;;;;;;14.51;100.00;96911.59;5024341;28;20199;-83
2022/05/27 06:34:37;;;;;;;4.63;2.87;;;;;;;14.61;100.00;96905.56;5024374;28;20206;-84
2022/05/27 06:37:08;;;;;;;13.77;3.53;;;;;;;14.68;100.00;96909.78;5025486;28;20297;-84
2022/05/27 06:39:38;;;;;;;9.20;3.67;;;;;;;14.67;100.00;96894.53;5023438;28;20256;-84
2022/05/27 06:42:08;;;;;;;7.77;2.90;;;;;;;14.66;100.00;96892.06;5021770;28;20211;-83
2022/05/27 06:44:36;;;;;;;5.93;2.77;;;;;;;14.72;100.00;96896.50;5018321;28;20325;-84
2022/05/27 06:47:03;;;;;;;5.07;2.23;;;;;;;14.82;100.00;96899.41;5017461;28;20296;-84
2022/05/27 06:49:30;;;;;;;4.43;2.17;;;;;;;14.80;100.00;96887.16;5018404;28;20264;-85
2022/05/27 06:51:57;;;;;;;5.30;2.87;;;;;;;14.81;100.00;96892.31;5023719;28;20241;-84
2022/05/27 06:54:25;;;;;;;5.63;2.87;;;;;;;14.93;100.00;96908.59;5008608;28;20214;-85
2022/05/27 06:56:53;;;;;;;5.27;3.10;;;;;;;14.98;100.00;96904.06;5009355;28;20207;-84
2022/05/27 06:59:22;;;;;;;8.17;2.90;;;;;;;15.10;100.00;96906.72;5021922;28;20261;-83
2022/05/27 07:01:49;;;;;;;7.20;3.13;;;;;;;15.09;100.00;96902.38;5015963;28;20289;-85
2022/05/27 07:04:18;;;;;;;5.40;2.77;;;;;;;15.02;100.00;96902.53;5008839;28;20207;-85
2022/05/27 07:06:50;;;;;;;7.73;3.70;;;;;;;15.06;100.00;96906.38;5016920;28;20238;-85
2022/05/27 07:09:19;;;;;;;4.17;2.10;;;;;;;15.06;100.00;96897.41;5029020;28;20225;-85
2022/05/27 07:11:48;;;;;;;5.30;2.10;;;;;;;15.26;100.00;96894.22;5020595;28;20253;-84
2022/05/27 07:14:17;;;;;;;3.13;2.20;;;;;;;15.68;100.00;96891.94;5011310;28;20207;-84
2022/05/27 07:16:46;;;;;;;3.77;2.00;;;;;;;16.19;100.00;96901.66;5016229;28;20272;-84
2022/05/27 07:19:14;;;;;;;2.07;1.90;;;;;;;16.66;100.00;96906.63;5014124;28;20214;-84
2022/05/27 07:21:44;;;;;;;2.47;2.17;;;;;;;16.99;100.00;96910.00;5022454;28;20223;-85
2022/05/27 07:24:13;;;;;;;2.17;1.90;;;;;;;17.18;100.00;96904.97;5015554;28;20326;-84
2022/05/27 07:26:41;;;;;;;5.93;2.10;;;;;;;17.09;100.00;96895.66;5038112;28;20213;-84
2022/05/27 07:29:09;;;;;;;2.33;2.00;;;;;;;17.47;100.00;96896.50;5015074;28;20230;-85
2022/05/27 07:31:40;;;;;;;3.27;1.80;;;;;;;17.80;100.00;96896.25;5034635;28;20207;-85
2022/05/27 07:34:08;;;;;;;3.20;1.70;;;;;;;17.84;100.00;96902.03;5040349;28;20218;-85
2022/05/27 07:36:35;;;;;;;4.03;2.40;;;;;;;17.85;100.00;96888.09;5023034;28;20227;-84
2022/05/27 07:39:04;;;;;;;2.53;1.90;;;;;;;18.18;100.00;96891.56;5022698;28;20207;-84
2022/05/27 07:41:32;;;;;;;3.70;2.00;;;;;;;18.41;99.84;96885.66;5020527;28;20234;-84
2022/05/27 07:44:01;;;;;;;3.10;2.37;;;;;;;18.81;99.85;96883.09;5016705;28;20246;-84
2022/05/27 07:46:31;;;;;;;3.60;2.23;;;;;;;19.19;95.07;96887.28;5037037;28;20211;-85
2022/05/27 07:48:59;;;;;;;3.47;2.13;;;;;;;19.42;92.81;96879.63;5011597;28;20692;-85
2022/05/27 07:51:26;;;;;;;4.27;2.60;;;;;;;19.64;90.13;96880.22;5014494;28;20213;-85
2022/05/27 07:53:54;;;;;;;4.05;2.30;;;;;;;19.60;90.06;96879.94;5036414;28;20275;-85
2022/05/27 07:56:21;;;;;;;3.00;2.25;;;;;;;19.56;92.45;96880.78;5020133;28;20202;-85
2022/05/27 07:58:48;;;;;;;3.35;2.30;;;;;;;19.65;89.25;96874.44;5016566;28;20218;-84
2022/05/27 08:01:16;;;;;;;3.22;1.90;;;;;;;19.83;89.11;96864.84;5014674;28;20222;-84
2022/05/27 08:03:43;;;;;;;2.95;2.10;;;;;;;20.01;86.28;96866.19;5019327;28;20266;-85
2022/05/27 08:06:11;;;;;;;1.88;1.70;;;;;;;20.13;82.87;96869.44;5031155;28;20210;-86
2022/05/27 08:08:39;;;;;;;4.15;2.15;;;;;;;20.35;80.53;96869.13;5039632;28;20206;-85
2022/05/27 08:11:08;;;;;;;3.58;2.08;;;;;;;20.46;81.16;96867.19;5017493;28;20226;-84
2022/05/27 08:13:35;;;;;;;3.88;2.42;;;;;;;20.59;79.01;96858.31;5025182;28;20211;-85
2022/05/27 08:16:02;;;;;;;3.85;2.20;;;;;;;20.64;78.60;96859.16;5014027;28;20645;-85
2022/05/27 08:18:29;;;;;;;4.20;2.53;;;;;;;20.44;80.00;96853.72;5013318;28;20223;-85
2022/05/27 08:20:58;;;;;;;2.92;2.42;;;;;;;20.58;78.63;96853.97;5014955;28;20284;-84
2022/05/27 08:23:27;;;;;;;4.78;2.38;;;;;;;20.65;78.85;96854.47;5017861;28;20295;-84
2022/05/27 08:25:56;;;;;;;2.88;2.45;;;;;;;20.76;78.25;96840.41;5015797;28;20203;-85
2022/05/27 08:28:25;;;;;;;2.72;2.20;;;;;;;20.95;79.02;96837.81;5015298;28;20217;-85
2022/05/27 08:30:55;;;;;;;4.88;2.00;;;;;;;21.06;78.75;96835.84;5013907;28;20206;-84
2022/05/27 08:33:24;;;;;;;2.42;2.17;;;;;;;20.69;76.62;96830.84;5007510;28;20298;-86
2022/05/27 08:38:40;;;;;;;3.10;1.70;;;;;;;20.79;77.25;96828.03;5019966;28;20211;-85
2022/05/27 08:41:20;;;;;;;3.90;2.03;;;;;;;21.00;75.09;96829.56;5011768;28;20231;-85
2022/05/27 08:44:01;;;;;;;3.65;2.22;;;;;;;21.27;77.53;96822.78;5038696;28;20238;-85
2022/05/27 08:46:36;;;;;;;2.72;1.80;;;;;;;21.42;75.62;96833.69;5019078;28;20211;-84
2022/05/27 08:49:06;;;;;;;1.70;1.60;;;;;;;21.51;73.95;96834.69;5015963;28;20197;-84
2022/05/27 08:51:39;;;;;;;2.60;1.90;;;;;;;21.62;75.16;96829.91;5026986;28;20218;-85
2022/05/27 08:54:12;;;;;;;5.53;1.80;;;;;;;21.76;72.38;96826.22;5017210;28;20199;-85
2022/05/27 08:59:36;;;;;;;5.15;1.88;;;;;;;21.73;72.86;96821.28;5005341;28;20206;-84
2022/05/27 09:02:09;;;;;;;2.38;1.85;;;;;;;21.62;75.10;96825.22;5027619;28;20276;-84
2022/05/27 09:04:41;;;;;;;2.53;1.70;;;;;;;21.67;74.78;96821.63;5019997;28;20222;-84
2022/05/27 09:07:25;;;;;;;2.60;2.00;;;;;;;21.70;74.51;96819.09;5025340;28;20211;-84
2022/05/27 09:09:55;;;;;;;2.90;2.20;;;;;;;21.75;72.94;96816.31;5028531;28;20218;-84
2022/05/27 09:12:44;;;;;;;4.50;1.85;;;;;;;21.82;72.79;96811.31;5023808;28;20204;-84
2022/05/27 09:15:30;;;;;;;3.03;1.92;;;;;;;21.97;72.37;96817.75;5018590;28;20363;-84
2022/05/27 09:18:06;;;;;;;2.10;1.90;;;;;;;22.22;71.39;96809.22;5017700;28;20215;-85
2022/05/27 09:20:50;;;;;;;3.10;1.83;;;;;;;22.31;70.55;96799.22;5038667;28;20298;-85
2022/05/27 09:24:02;;;;;;;2.30;2.00;;;;;;;22.41;70.37;96810.09;5027790;28;20215;-84
2022/05/27 09:26:40;;;;;;;5.78;2.47;;;;;;;22.41;70.37;96801.84;5032598;28;20203;-84
2022/05/27 09:29:22;;;;;;;2.65;1.80;;;;;;;22.42;68.06;96803.50;5014069;28;20219;-84
2022/05/27 09:31:55;;;;;;;4.40;1.80;;;;;;;22.46;69.87;96811.97;5016308;28;20199;-84
2022/05/27 09:34:27;;;;;;;2.67;1.90;;;;;;;22.53;67.58;96801.44;5016399;28;20238;-84
2022/05/27 09:36:57;;;;;;;3.28;1.90;;;;;;;22.60;67.07;96788.13;5033271;28;20214;-85
2022/05/27 09:39:24;;;;;;;1.50;1.40;;;;;;;22.61;69.97;96803.53;5024008;28;20198;-85
2022/05/27 09:42:01;;;;;;;2.45;1.90;;;;;;;22.73;67.47;96797.56;5031639;28;20215;-84
2022/05/27 09:44:39;;;;;;;2.58;2.00;;;;;;;22.82;67.07;96793.06;5021372;28;20231;-85
2022/05/27 09:47:08;;;;;;;4.63;2.15;;;;;;;22.80;66.50;96784.28;5021300;28;20302;-84
2022/05/27 09:49:35;;;;;;;2.90;1.90;;;;;;;22.95;66.90;96792.34;5021230;28;20212;-84
2022/05/27 09:52:03;;;;;;;1.65;1.55;;;;;;;22.98;69.06;96780.69;5034652;28;20207;-84
2022/05/27 09:54:41;;;;;;;3.65;1.85;;;;;;;23.04;66.75;96778.69;5030245;28;20203;-85
2022/05/27 09:57:25;;;;;;;3.08;2.22;;;;;;;23.09;67.10;96771.16;5036560;28;20199;-84
2022/05/27 09:59:56;;;;;;;2.40;2.13;;;;;;;23.05;66.10;96770.16;5016845;28;20243;-85
2022/05/27 10:02:29;;;;;;;2.45;1.90;;;;;;;23.07;66.49;96762.38;5012528;28;20227;-84
2022/05/27 10:04:59;;;;;;;3.90;2.00;;;;;;;23.10;66.42;96761.78;5039372;28;20246;-84
2022/05/27 10:07:31;;;;;;;2.50;1.75;;;;;;;23.17;66.79;96756.72;5021991;28;20211;-84
2022/05/27 10:09:59;;;;;;;3.13;2.10;;;;;;;23.26;65.54;96762.34;5040412;28;20217;-84
2022/05/27 10:12:33;;;;;;;2.30;1.77;;;;;;;23.39;64.88;96754.13;5025119;28;20230;-84
2022/05/27 10:15:00;;;;;;;3.20;1.80;;;;;;;23.48;64.81;96761.72;5037605;28;20285;-84
2022/05/27 10:17:32;;;;;;;2.47;1.55;;;;;;;23.37;65.50;96745.34;5009536;28;20227;-85
2022/05/27 10:20:17;;;;;;;2.55;1.83;;;;;;;23.36;65.68;96740.97;5032829;28;20291;-84
2022/05/27 10:22:59;;;;;;;2.42;1.80;;;;;;;23.68;66.91;96736.53;5018871;28;20226;-84
2022/05/27 10:25:34;;;;;;;3.30;1.80;;;;;;;23.54;64.65;96728.28;5018639;28;20304;-84
2022/05/27 10:28:04;;;;;;;4.82;1.98;;;;;;;23.47;63.85;96730.59;5017673;28;20516;-84
2022/05/27 10:30:33;;;;;;;1.98;1.70;;;;;;;23.45;65.20;96729.25;5008930;28;20211;-84
2022/05/27 10:33:16;;;;;;;2.10;1.90;;;;;;;23.50;65.43;96724.47;5038347;28;20210;-85
2022/05/27 10:35:43;;;;;;;2.83;1.77;;;;;;;23.48;65.34;96720.38;5022609;28;20228;-84
2022/05/27 10:38:21;;;;;;;3.47;1.70;;;;;;;23.42;64.33;96713.28;5022278;28;20211;-84
2022/05/27 10:40:57;;;;;;;1.95;1.70;;;;;;;23.71;65.81;96711.13;5021811;28;20210;-85
2022/05/27 10:43:40;;;;;;;2.30;1.63;;;;;;;23.72;64.24;96715.53;5019567;28;20304;-84
2022/05/27 10:46:13;;;;;;;3.22;1.88;;;;;;;23.68;64.80;96703.47;5016869;28;20199;-85
2022/05/27 10:49:03;;;;;;;2.95;1.60;;;;;;;23.96;65.16;96696.03;5012565;28;20258;-84
2022/05/27 10:51:40;;;;;;;2.22;1.70;;;;;;;23.88;62.95;96696.75;5014983;28;20257;-85
2022/05/27 10:54:42;;;;;;;4.60;1.67;;;;;;;23.82;64.45;96693.25;5026274;28;20211;-85
2022/05/27 11:03:46;;;;;;;1.75;1.60;;;;;;;24.23;63.92;96675.91;5032764;28;20249;-84
2022/05/27 11:06:27;;;;;;;2.80;1.52;;;;;;;24.23;62.90;96684.16;4937280;28;20213;-84
2022/05/27 11:09:12;;;;;;;2.10;1.70;;;;;;;24.33;62.29;96681.97;4937060;28;20201;-84
2022/05/27 11:11:46;;;;;;;2.85;1.70;;;;;;;24.24;62.83;96681.09;5010435;28;20211;-83
2022/05/27 11:17:30;;;;;;;1.77;1.60;;;;;;;24.33;61.81;96672.91;5018288;28;20226;-84
2022/05/27 11:20:18;;;;;;;3.28;1.73;;;;;;;24.29;61.54;96666.38;5034041;28;20301;-84
2022/05/27 11:22:53;;;;;;;5.22;1.63;;;;;;;24.31;62.33;96653.91;5018122;28;20254;-83
2022/05/27 11:25:30;;;;;;;2.22;1.50;;;;;;;24.15;61.73;96647.06;5018811;28;20213;-85
2022/05/27 11:28:34;;;;;;;3.47;1.70;;;;;;;24.24;61.82;96652.69;5009324;28;20214;-84
2022/05/27 11:31:14;;;;;;;1.73;1.40;;;;;;;24.21;62.06;96648.59;4987853;28;20202;-84
2022/05/27 11:33:54;;;;;;;2.42;1.90;;;;;;;24.16;62.75;96645.13;5019484;28;20215;-84
2022/05/27 11:36:35;;;;;;;1.95;1.73;;;;;;;24.30;61.46;96630.19;5014534;28;20211;-85
2022/05/27 11:39:32;;;;;;;2.30;1.70;;;;;;;24.50;60.16;96645.44;5023801;28;20268;-84
2022/05/27 11:42:13;;;;;;;2.33;1.60;;;;;;;24.41;60.63;96644.56;5038345;28;20228;-84
2022/05/27 11:44:44;;;;;;;2.08;1.80;;;;;;;24.58;60.93;96635.63;5026158;28;20231;-84
2022/05/27 11:47:36;;;;;;;2.42;1.92;;;;;;;24.63;62.50;96635.47;5014154;28;20205;-84
2022/05/27 11:50:16;;;;;;;2.70;1.83;;;;;;;24.61;62.07;96629.44;5023714;28;20206;-85
2022/05/27 11:53:00;;;;;;;1.73;1.63;;;;;;;24.83;60.96;96624.75;5008774;28;20231;-84
2022/05/27 11:55:40;;;;;;;3.85;1.80;;;;;;;24.77;62.09;96622.41;5025642;28;20210;-85
2022/05/27 11:58:16;;;;;;;2.72;1.88;;;;;;;24.99;60.58;96622.44;5014134;28;20246;-84
2022/05/27 12:00:48;;;;;;;2.58;1.85;;;;;;;25.08;60.34;96611.44;5037634;28;20226;-84
2022/05/27 12:03:27;;;;;;;2.40;1.80;;;;;;;25.06;61.20;96616.47;5029065;28;20236;-85
2022/05/27 12:06:00;;;;;;;2.65;2.03;;;;;;;25.23;61.08;96611.03;5014935;28;20210;-85
2022/05/27 12:08:35;;;;;;;2.65;1.65;;;;;;;25.11;60.35;96606.09;5021582;28;20199;-85
2022/05/27 12:11:10;;;;;;;2.78;1.80;;;;;;;25.01;61.42;96600.03;5024274;28;20302;-84
2022/05/27 12:13:43;;;;;;;4.25;1.90;;;;;;;24.95;62.47;96606.81;5014985;28;20218;-84
2022/05/27 12:16:14;;;;;;;2.92;1.90;;;;;;;24.77;61.58;96598.38;5016392;28;20229;-84
2022/05/27 12:18:46;;;;;;;2.53;2.00;;;;;;;24.87;63.24;96600.88;5010181;28;20206;-85